createdAt,value
2022-12-19T00:00:17.028Z,-7.12
2022-12-19T00:03:05.967Z,-7.12
2022-12-19T00:05:44.199Z,-7.14
2022-12-19T00:08:17.355Z,-7.16
2022-12-19T00:10:56.220Z,-7.18
2022-12-19T00:13:26.647Z,-7.18
2022-12-19T00:15:59.989Z,-7.19
2022-12-19T00:18:28.729Z,-7.19
2022-12-19T00:20:59.977Z,-7.21
2022-12-19T00:23:31.035Z,-7.23
2022-12-19T00:26:09.697Z,-7.26
2022-12-19T00:28:39.043Z,-7.27
2022-12-19T00:31:08.312Z,-7.30
2022-12-19T00:33:43.514Z,-7.34
2022-12-19T00:36:24.286Z,-7.35
2022-12-19T00:38:57.914Z,-7.36
2022-12-19T00:41:35.392Z,-7.37
2022-12-19T00:44:10.203Z,-7.38
2022-12-19T00:46:39.180Z,-7.37
2022-12-19T00:49:07.975Z,-7.38
2022-12-19T00:51:37.877Z,-7.37
2022-12-19T00:54:12.359Z,-7.37
2022-12-19T00:56:41.916Z,-7.38
2022-12-19T00:59:11.008Z,-7.40
2022-12-19T01:01:42.053Z,-7.43
2022-12-19T01:04:28.256Z,-7.45
2022-12-19T01:07:01.921Z,-7.47
2022-12-19T01:09:35.229Z,-7.49
2022-12-19T01:12:33.873Z,-7.49
2022-12-19T01:15:04.888Z,-7.50
2022-12-19T01:17:37.026Z,-7.50
2022-12-19T01:20:19.111Z,-7.50
2022-12-19T01:23:00.513Z,-7.50
2022-12-19T01:25:29.636Z,-7.52
2022-12-19T01:27:58.517Z,-7.54
2022-12-19T01:30:29.175Z,-7.56
2022-12-19T01:33:00.846Z,-7.58
2022-12-19T01:35:29.797Z,-7.59
2022-12-19T01:38:06.569Z,-7.58
2022-12-19T01:40:48.114Z,-7.62
2022-12-19T01:43:17.598Z,-7.63
2022-12-19T01:45:50.844Z,-7.64
2022-12-19T01:48:28.365Z,-7.65
2022-12-19T01:51:01.371Z,-7.65
2022-12-19T01:53:46.438Z,-7.65
2022-12-19T01:56:29.201Z,-7.65
2022-12-19T01:59:06.511Z,-7.67
2022-12-19T02:01:51.011Z,-7.68
2022-12-19T02:04:24.893Z,-7.68
2022-12-19T02:06:58.413Z,-7.71
2022-12-19T02:09:27.827Z,-7.73
2022-12-19T02:11:58.727Z,-7.75
2022-12-19T02:14:29.205Z,-7.75
2022-12-19T02:17:05.880Z,-7.74
2022-12-19T02:19:58.985Z,-7.78
2022-12-19T02:22:41.364Z,-7.82
2022-12-19T02:25:31.419Z,-7.86
2022-12-19T02:28:38.681Z,-7.89
2022-12-19T02:31:17.871Z,-7.94
2022-12-19T02:34:08.458Z,-8.01
2022-12-19T02:36:46.829Z,-8.06
2022-12-19T02:39:26.573Z,-8.11
2022-12-19T02:41:59.574Z,-8.16
2022-12-19T02:44:33.352Z,-8.21
2022-12-19T02:47:05.459Z,-8.26
2022-12-19T02:49:37.163Z,-8.30
2022-12-19T02:52:12.908Z,-8.34
2022-12-19T02:54:46.494Z,-8.40
2022-12-19T02:57:24.410Z,-8.43
2022-12-19T03:00:06.172Z,-8.48
2022-12-19T03:02:51.191Z,-8.56
2022-12-19T03:05:42.076Z,-8.61
2022-12-19T03:08:24.378Z,-8.66
2022-12-19T03:11:00.388Z,-8.72
2022-12-19T03:13:34.217Z,-8.77
2022-12-19T03:16:08.333Z,-8.80
2022-12-19T03:18:38.717Z,-8.86
2022-12-19T03:21:15.532Z,-8.89
2022-12-19T03:23:53.181Z,-8.95
2022-12-19T03:26:31.140Z,-8.98
2022-12-19T03:29:07.812Z,-9.03
2022-12-19T03:31:38.982Z,-9.07
2022-12-19T03:34:16.838Z,-9.10
2022-12-19T03:36:54.663Z,-9.15
2022-12-19T03:39:29.896Z,-9.20
2022-12-19T03:42:22.287Z,-9.23
2022-12-19T03:44:54.034Z,-9.27
2022-12-19T03:47:34.500Z,-9.30
2022-12-19T03:50:07.081Z,-9.32
2022-12-19T03:52:45.466Z,-9.35
2022-12-19T03:55:24.424Z,-9.41
2022-12-19T03:57:58.317Z,-9.44
2022-12-19T04:00:29.740Z,-9.49
2022-12-19T04:03:00.698Z,-9.50
2022-12-19T04:05:30.087Z,-9.55
2022-12-19T04:08:06.158Z,-9.58
2022-12-19T04:10:48.001Z,-9.62
2022-12-19T04:13:27.027Z,-9.63
2022-12-19T04:16:06.942Z,-9.66
2022-12-19T04:18:37.620Z,-9.68
2022-12-19T04:21:15.119Z,-9.71
2022-12-19T04:23:49.708Z,-9.73
2022-12-19T04:26:31.070Z,-9.77
2022-12-19T04:29:04.055Z,-9.82
2022-12-19T04:31:33.022Z,-9.86
2022-12-19T04:34:02.316Z,-9.89
2022-12-19T04:36:32.473Z,-9.92
2022-12-19T04:39:01.498Z,-9.94
2022-12-19T04:41:31.065Z,-9.95
2022-12-19T04:44:00.537Z,-9.96
2022-12-19T04:46:32.821Z,-9.99
2022-12-19T04:49:02.617Z,-10.00
2022-12-19T04:51:31.752Z,-10.04
2022-12-19T04:54:02.936Z,-10.04
2022-12-19T04:56:31.763Z,-10.06
2022-12-19T04:59:02.131Z,-10.07
2022-12-19T05:01:31.545Z,-10.09
2022-12-19T05:04:04.349Z,-10.10
2022-12-19T05:06:34.035Z,-10.11
2022-12-19T05:09:03.296Z,-10.13
2022-12-19T05:11:32.823Z,-10.14
2022-12-19T05:14:02.313Z,-10.16
2022-12-19T05:16:31.504Z,-10.17
2022-12-19T05:19:01.927Z,-10.18
2022-12-19T05:21:31.005Z,-10.20
2022-12-19T05:24:00.362Z,-10.21
2022-12-19T05:26:29.314Z,-10.24
2022-12-19T05:28:58.445Z,-10.28
2022-12-19T05:31:27.545Z,-10.29
2022-12-19T05:33:56.469Z,-10.30
2022-12-19T05:36:32.127Z,-10.32
2022-12-19T05:39:04.312Z,-10.35
2022-12-19T05:41:33.376Z,-10.37
2022-12-19T05:44:03.200Z,-10.38
2022-12-19T05:46:32.396Z,-10.42
2022-12-19T05:49:01.425Z,-10.45
2022-12-19T05:51:30.859Z,-10.46
2022-12-19T05:54:02.888Z,-10.49
2022-12-19T05:56:31.918Z,-10.51
2022-12-19T05:59:03.683Z,-10.53
2022-12-19T06:01:37.068Z,-10.56
2022-12-19T06:04:07.877Z,-10.59
2022-12-19T06:06:38.707Z,-10.62
2022-12-19T06:09:08.960Z,-10.64
2022-12-19T06:11:38.143Z,-10.66
2022-12-19T06:14:07.164Z,-10.68
2022-12-19T06:16:39.624Z,-10.69
2022-12-19T06:19:09.512Z,-10.74
2022-12-19T06:21:45.449Z,-10.76
2022-12-19T06:24:18.086Z,-10.78
2022-12-19T06:26:47.360Z,-10.81
2022-12-19T06:29:18.618Z,-10.82
2022-12-19T06:31:47.461Z,-10.84
2022-12-19T06:34:46.955Z,-10.86
2022-12-19T06:37:09.195Z,-10.87
2022-12-19T06:39:38.483Z,-10.90
2022-12-19T06:42:24.886Z,-10.91
2022-12-19T06:44:57.286Z,-10.94
2022-12-19T06:47:28.545Z,-10.96
2022-12-19T06:49:58.907Z,-10.97
2022-12-19T06:52:27.666Z,-10.98
2022-12-19T06:54:57.277Z,-11.00
2022-12-19T06:57:26.894Z,-10.99
2022-12-19T06:59:57.969Z,-10.99
2022-12-19T07:02:31.392Z,-11.00
2022-12-19T07:05:10.166Z,-11.00
2022-12-19T07:07:40.752Z,-10.99
2022-12-19T07:10:12.887Z,-11.00
2022-12-19T07:12:41.838Z,-11.01
2022-12-19T07:15:12.937Z,-10.99
2022-12-19T07:17:42.179Z,-11.02
2022-12-19T07:20:16.070Z,-11.01
2022-12-19T07:22:45.894Z,-11.00
2022-12-19T07:25:17.146Z,-10.99
2022-12-19T07:27:47.745Z,-10.99
2022-12-19T07:30:17.407Z,-10.99
2022-12-19T07:32:46.484Z,-10.98
2022-12-19T07:35:17.863Z,-10.97
2022-12-19T07:37:53.840Z,-10.96
2022-12-19T07:40:23.402Z,-10.93
2022-12-19T07:42:52.406Z,-10.90
2022-12-19T07:45:21.413Z,-10.87
2022-12-19T07:47:53.414Z,-10.84
2022-12-19T07:50:22.303Z,-10.80
2022-12-19T07:52:51.229Z,-10.77
2022-12-19T07:55:23.767Z,-10.73
2022-12-19T07:57:55.841Z,-10.69
2022-12-19T08:00:24.866Z,-10.66
2022-12-19T08:02:53.683Z,-10.62
2022-12-19T08:05:24.209Z,-10.57
2022-12-19T08:07:56.476Z,-10.52
2022-12-19T08:10:25.246Z,-10.46
2022-12-19T08:12:54.001Z,-10.41
2022-12-19T08:15:25.403Z,-10.34
2022-12-19T08:17:56.027Z,-10.30
2022-12-19T08:20:24.763Z,-10.23
2022-12-19T08:22:53.580Z,-10.15
2022-12-19T08:25:22.703Z,-10.07
2022-12-19T08:27:51.476Z,-9.99
2022-12-19T08:30:20.276Z,-9.91
2022-12-19T08:32:49.097Z,-9.82
2022-12-19T08:35:19.155Z,-9.74
2022-12-19T08:37:48.303Z,-9.67
2022-12-19T08:40:18.195Z,-9.60
2022-12-19T08:42:47.085Z,-9.51
2022-12-19T08:45:18.741Z,-9.41
2022-12-19T08:47:47.897Z,-9.33
2022-12-19T08:50:19.380Z,-9.25
2022-12-19T08:52:48.178Z,-9.18
2022-12-19T08:55:18.226Z,-9.09
2022-12-19T08:57:49.475Z,-9.04
2022-12-19T09:00:20.243Z,-8.97
2022-12-19T09:02:55.214Z,-8.89
2022-12-19T09:05:57.446Z,-8.79
2022-12-19T09:08:12.453Z,-8.56
2022-12-19T09:10:47.659Z,-8.31
2022-12-19T09:13:17.601Z,-8.26
2022-12-19T09:15:48.762Z,-8.28
2022-12-19T09:18:18.405Z,-8.19
2022-12-19T09:20:53.097Z,-8.12
2022-12-19T09:23:22.790Z,-8.06
2022-12-19T09:25:51.989Z,-8.00
2022-12-19T09:28:28.485Z,-7.97
2022-12-19T09:30:58.546Z,-7.95
2022-12-19T09:33:27.963Z,-7.95
2022-12-19T09:35:57.468Z,-7.93
2022-12-19T09:38:29.387Z,-7.91
2022-12-19T09:44:16.184Z,-7.80
2022-12-19T09:46:51.582Z,-7.73
2022-12-19T09:49:24.405Z,-7.64
2022-12-19T09:52:00.573Z,-7.27
2022-12-19T09:54:35.564Z,-5.06
2022-12-19T09:57:12.352Z,-3.24
2022-12-19T09:59:50.135Z,-1.68
2022-12-19T10:02:39.105Z,-0.51
2022-12-19T10:05:46.623Z,0.56
2022-12-19T10:08:23.653Z,1.53
2022-12-19T10:12:39.193Z,1.86
2022-12-19T10:14:21.116Z,2.26
2022-12-19T10:17:23.815Z,2.73
2022-12-19T10:20:12.037Z,2.90
2022-12-19T10:22:52.710Z,3.23
2022-12-19T10:25:43.119Z,3.54
2022-12-19T10:28:32.683Z,3.69
2022-12-19T10:31:17.268Z,3.79
2022-12-19T10:33:57.826Z,3.80
2022-12-19T10:37:11.918Z,3.87
2022-12-19T10:39:29.172Z,3.78
2022-12-19T10:42:08.154Z,3.63
2022-12-19T10:44:40.297Z,3.65
2022-12-19T10:47:15.732Z,3.64
2022-12-19T10:49:44.816Z,3.51
2022-12-19T10:52:47.198Z,3.43
2022-12-19T10:55:47.522Z,2.83
2022-12-19T10:58:22.779Z,2.29
2022-12-19T11:01:16.877Z,1.69
2022-12-19T11:03:53.407Z,0.90
2022-12-19T11:06:44.119Z,0.43
2022-12-19T11:09:30.416Z,-0.18
2022-12-19T11:13:32.266Z,-0.92
2022-12-19T11:20:42.165Z,-1.97
2022-12-19T11:27:29.564Z,-2.84
2022-12-19T11:29:34.765Z,-3.44
2022-12-19T11:29:37.684Z,-3.85
2022-12-19T11:29:41.739Z,-4.20
2022-12-19T11:32:44.859Z,-4.75
2022-12-19T11:35:24.810Z,-5.02
2022-12-19T11:38:07.777Z,-5.20
2022-12-19T11:40:53.058Z,-5.38
2022-12-19T11:43:47.992Z,-5.49
2022-12-19T11:46:30.440Z,-5.56
2022-12-19T11:49:11.297Z,-5.65
2022-12-19T11:51:49.088Z,-5.71
2022-12-19T11:54:26.859Z,-5.74
2022-12-19T11:57:12.114Z,-5.76
2022-12-19T11:59:42.988Z,-5.80
2022-12-19T12:02:39.201Z,-5.81
2022-12-19T12:05:44.378Z,-5.80
2022-12-19T12:11:05.309Z,-5.78
2022-12-19T12:19:18.836Z,-5.76
2022-12-19T12:24:53.591Z,-5.70
2022-12-19T12:31:04.227Z,-5.67
2022-12-19T12:31:18.864Z,-5.63
2022-12-19T12:31:47.164Z,-5.59
2022-12-19T12:31:47.730Z,-5.55
2022-12-19T12:32:04.001Z,-5.60
2022-12-19T12:35:35.105Z,-5.54
2022-12-19T12:39:35.775Z,-5.57
2022-12-19T12:42:16.111Z,-5.61
2022-12-19T12:44:51.127Z,-5.66
2022-12-19T12:47:24.112Z,-5.72
2022-12-19T12:50:16.735Z,-5.77
2022-12-19T12:52:57.596Z,-5.83
2022-12-19T12:55:29.972Z,-5.90
2022-12-19T12:57:59.373Z,-5.92
2022-12-19T13:00:30.426Z,-5.96
2022-12-19T13:03:11.258Z,-5.99
2022-12-19T13:06:03.272Z,-6.03
2022-12-19T13:08:49.091Z,-6.10
2022-12-19T13:12:06.125Z,-6.15
2022-12-19T13:14:50.160Z,-6.21
2022-12-19T13:17:47.414Z,-6.24
2022-12-19T13:20:48.260Z,-6.29
2022-12-19T13:23:34.148Z,-6.33
2022-12-19T13:26:04.798Z,-6.38
2022-12-19T13:28:42.978Z,-6.40
2022-12-19T13:31:22.767Z,-6.45
2022-12-19T13:34:19.224Z,-6.48
2022-12-19T13:39:50.749Z,-6.53
2022-12-19T13:40:13.575Z,-6.59
2022-12-19T13:43:30.688Z,-6.63
2022-12-19T13:46:02.136Z,-6.68
2022-12-19T13:48:34.003Z,-6.71
2022-12-19T13:51:10.934Z,-6.74
2022-12-19T13:53:45.027Z,-6.79
2022-12-19T13:56:19.008Z,-6.82
2022-12-19T13:58:53.413Z,-6.86
2022-12-19T14:01:29.476Z,-6.90
2022-12-19T14:04:07.884Z,-6.94
2022-12-19T14:06:43.162Z,-6.99
2022-12-19T14:11:28.262Z,-7.02
2022-12-19T14:13:48.157Z,-7.08
2022-12-19T14:15:58.734Z,-7.11
2022-12-19T14:18:45.039Z,-7.15
2022-12-19T14:22:05.734Z,-7.19
2022-12-19T14:24:25.925Z,-7.23
2022-12-19T14:28:20.125Z,-7.25
2022-12-19T14:30:30.464Z,-7.29
2022-12-19T14:33:44.776Z,-7.30
2022-12-19T14:36:09.964Z,-7.33
2022-12-19T14:39:23.276Z,-7.36
2022-12-19T14:42:13.651Z,-7.39
2022-12-19T14:53:34.303Z,-7.42
2022-12-19T14:53:51.781Z,-7.46
2022-12-19T14:54:16.122Z,-7.49
2022-12-19T14:57:25.327Z,-7.55
2022-12-19T15:01:09.607Z,-7.58
2022-12-19T15:03:23.718Z,-7.61
2022-12-19T15:07:05.231Z,-7.63
2022-12-19T15:10:58.596Z,-7.63
2022-12-19T15:14:20.714Z,-7.65
2022-12-19T15:15:34.269Z,-7.66
2022-12-19T15:18:18.039Z,-7.67
2022-12-19T15:21:00.987Z,-7.67
2022-12-19T15:23:34.009Z,-7.68
2022-12-19T15:26:08.470Z,-7.68
2022-12-19T15:28:43.313Z,-7.67
2022-12-19T15:31:36.635Z,-7.68
2022-12-19T15:34:39.253Z,-7.68
2022-12-19T15:37:10.275Z,-7.68
2022-12-19T15:39:41.379Z,-7.68
2022-12-19T15:42:22.619Z,-7.67
2022-12-19T15:44:57.821Z,-7.66
2022-12-19T15:47:32.177Z,-7.65
2022-12-19T15:50:14.058Z,-7.63
2022-12-19T15:55:35.496Z,-7.58
2022-12-19T15:58:06.944Z,-7.55
2022-12-19T16:00:37.424Z,-7.51
2022-12-19T16:03:27.199Z,-7.48
2022-12-19T16:05:57.153Z,-7.46
2022-12-19T16:08:27.901Z,-7.45
2022-12-19T16:11:07.109Z,-7.42
2022-12-19T16:13:36.851Z,-7.40
2022-12-19T16:16:15.767Z,-7.39
2022-12-19T16:18:47.038Z,-7.37
2022-12-19T16:21:33.702Z,-7.35
2022-12-19T16:24:06.640Z,-7.35
2022-12-19T16:26:40.261Z,-7.35
2022-12-19T16:29:19.966Z,-7.34
2022-12-19T16:31:49.276Z,-7.33
2022-12-19T16:34:24.546Z,-7.34
2022-12-19T16:36:54.350Z,-7.33
2022-12-19T16:39:23.229Z,-7.33
2022-12-19T16:41:52.232Z,-7.34
2022-12-19T16:44:23.211Z,-7.34
2022-12-19T16:46:54.773Z,-7.34
2022-12-19T16:49:24.640Z,-7.34
2022-12-19T16:51:54.342Z,-7.34
2022-12-19T16:54:31.887Z,-7.35
2022-12-19T16:57:06.076Z,-7.35
2022-12-19T16:59:41.196Z,-7.36
2022-12-19T17:02:46.506Z,-7.36
2022-12-19T17:05:29.367Z,-7.36
2022-12-19T17:08:10.518Z,-7.36
2022-12-19T17:10:48.335Z,-7.34
2022-12-19T17:13:19.274Z,-7.33
2022-12-19T17:15:57.088Z,-7.32
2022-12-19T17:18:34.820Z,-7.31
2022-12-19T17:21:11.856Z,-7.30
2022-12-19T17:23:48.355Z,-7.27
2022-12-19T17:26:29.663Z,-7.24
2022-12-19T17:28:58.519Z,-7.21
2022-12-19T17:31:37.439Z,-7.16
2022-12-19T17:34:26.530Z,-7.13
2022-12-19T17:36:58.052Z,-7.09
2022-12-19T17:39:29.815Z,-7.06
2022-12-19T17:42:05.905Z,-7.02
2022-12-19T17:44:38.150Z,-6.99
2022-12-19T17:47:07.667Z,-6.95
2022-12-19T17:49:36.842Z,-6.92
2022-12-19T17:52:14.216Z,-6.90
2022-12-19T17:54:44.837Z,-6.86
2022-12-19T17:57:19.054Z,-6.84
2022-12-19T17:59:49.919Z,-6.81
2022-12-19T18:02:26.530Z,-6.79
2022-12-19T18:05:01.154Z,-6.76
2022-12-19T18:07:34.615Z,-6.74
2022-12-19T18:10:14.384Z,-6.72
2022-12-19T18:12:45.700Z,-6.71
2022-12-19T18:15:15.803Z,-6.68
2022-12-19T18:17:47.928Z,-6.64
2022-12-19T18:20:31.206Z,-6.60
2022-12-19T18:23:19.056Z,-6.55
2022-12-19T18:25:54.823Z,-6.52
2022-12-19T18:28:28.928Z,-6.47
2022-12-19T18:31:07.122Z,-6.43
2022-12-19T18:33:41.045Z,-6.41
2022-12-19T18:36:36.358Z,-6.37
2022-12-19T18:39:06.770Z,-6.34
2022-12-19T18:41:39.050Z,-6.32
2022-12-19T18:44:08.126Z,-6.30
2022-12-19T18:46:41.965Z,-6.27
2022-12-19T18:49:14.618Z,-6.23
2022-12-19T18:51:44.706Z,-6.20
2022-12-19T18:54:19.854Z,-6.18
2022-12-19T18:56:49.288Z,-6.15
2022-12-19T18:59:21.969Z,-6.11
2022-12-19T19:01:51.860Z,-6.09
2022-12-19T19:04:24.507Z,-6.05
2022-12-19T19:06:56.942Z,-6.02
2022-12-19T19:09:28.810Z,-5.98
2022-12-19T19:15:12.584Z,-5.91
2022-12-19T19:17:43.714Z,-5.87
2022-12-19T19:20:14.536Z,-5.82
2022-12-19T19:22:44.568Z,-5.81
2022-12-19T19:25:18.279Z,-5.78
2022-12-19T19:27:48.073Z,-5.75
2022-12-19T19:30:21.230Z,-5.72
2022-12-19T19:32:57.063Z,-5.68
2022-12-19T19:35:29.819Z,-5.67
2022-12-19T19:38:15.789Z,-5.64
2022-12-19T19:40:48.413Z,-5.61
2022-12-19T19:43:20.487Z,-5.60
2022-12-19T19:45:51.314Z,-5.57
2022-12-19T19:48:21.636Z,-5.55
2022-12-19T19:50:50.693Z,-5.52
2022-12-19T19:53:21.318Z,-5.51
2022-12-19T19:55:56.396Z,-5.49
2022-12-19T19:58:25.497Z,-5.47
2022-12-19T20:00:55.981Z,-5.44
2022-12-19T20:03:26.502Z,-5.43
2022-12-19T20:06:14.188Z,-5.40
2022-12-19T20:08:43.338Z,-5.38
2022-12-19T20:11:13.155Z,-5.34
2022-12-19T20:13:45.688Z,-5.31
2022-12-19T20:16:19.817Z,-5.28
2022-12-19T20:18:50.239Z,-5.26
2022-12-19T20:21:24.444Z,-5.22
2022-12-19T20:23:55.970Z,-5.21
2022-12-19T20:26:29.721Z,-5.18
2022-12-19T20:28:58.644Z,-5.15
2022-12-19T20:31:27.798Z,-5.12
2022-12-19T20:33:56.748Z,-5.09
2022-12-19T20:36:26.149Z,-5.06
2022-12-19T20:38:55.568Z,-5.03
2022-12-19T20:41:30.763Z,-5.01
2022-12-19T20:44:03.563Z,-4.99
2022-12-19T20:46:35.190Z,-4.95
2022-12-19T20:49:04.409Z,-4.93
2022-12-19T20:51:34.338Z,-4.92
2022-12-19T20:54:04.653Z,-4.89
2022-12-19T20:56:34.670Z,-4.88
2022-12-19T20:59:09.902Z,-4.86
2022-12-19T21:01:40.931Z,-4.84
2022-12-19T21:04:10.313Z,-4.81
2022-12-19T21:06:40.978Z,-4.78
2022-12-19T21:09:14.324Z,-4.75
2022-12-19T21:11:43.169Z,-4.72
2022-12-19T21:14:12.233Z,-4.70
2022-12-19T21:16:41.174Z,-4.69
2022-12-19T21:19:11.289Z,-4.68
2022-12-19T21:21:40.600Z,-4.65
2022-12-19T21:24:10.417Z,-4.63
2022-12-19T21:26:40.363Z,-4.61
2022-12-19T21:29:11.364Z,-4.60
2022-12-19T21:31:40.665Z,-4.56
2022-12-19T21:34:12.467Z,-4.54
2022-12-19T21:36:41.476Z,-4.51
2022-12-19T21:39:12.585Z,-4.47
2022-12-19T21:41:44.400Z,-4.44
2022-12-19T21:44:13.143Z,-4.41
2022-12-19T21:46:42.034Z,-4.38
2022-12-19T21:49:14.372Z,-4.35
2022-12-19T21:51:43.120Z,-4.31
2022-12-19T21:54:12.094Z,-4.28
2022-12-19T21:56:41.888Z,-4.24
2022-12-19T21:59:14.023Z,-4.21
2022-12-19T22:01:43.889Z,-4.16
2022-12-19T22:04:15.381Z,-4.12
2022-12-19T22:06:44.902Z,-4.10
2022-12-19T22:09:15.429Z,-4.06
2022-12-19T22:11:44.772Z,-4.01
2022-12-19T22:14:15.472Z,-3.98
2022-12-19T22:16:51.602Z,-3.94
2022-12-19T22:19:22.475Z,-3.89
2022-12-19T22:21:51.371Z,-3.86
2022-12-19T22:24:24.323Z,-3.83
2022-12-19T22:26:53.149Z,-3.80
2022-12-19T22:29:25.621Z,-3.77
2022-12-19T22:31:54.532Z,-3.73
2022-12-19T22:34:23.596Z,-3.70
2022-12-19T22:36:54.416Z,-3.65
2022-12-19T22:39:24.094Z,-3.63
2022-12-19T22:41:52.957Z,-3.60
2022-12-19T22:44:26.920Z,-3.57
2022-12-19T22:46:55.627Z,-3.52
2022-12-19T22:49:24.556Z,-3.50
2022-12-19T22:51:53.371Z,-3.47
2022-12-19T22:54:24.311Z,-3.46
2022-12-19T22:56:53.365Z,-3.43
2022-12-19T22:59:22.303Z,-3.41
2022-12-19T23:01:52.572Z,-3.37
2022-12-19T23:04:21.817Z,-3.35
2022-12-19T23:06:51.152Z,-3.31
2022-12-19T23:09:20.998Z,-3.28
2022-12-19T23:11:50.297Z,-3.23
2022-12-19T23:14:20.395Z,-3.18
2022-12-19T23:16:54.690Z,-3.14
2022-12-19T23:19:23.656Z,-3.09
2022-12-19T23:21:52.524Z,-3.04
2022-12-19T23:24:22.085Z,-3.00
2022-12-19T23:26:51.008Z,-2.96
2022-12-19T23:29:22.122Z,-2.92
2022-12-19T23:31:51.179Z,-2.87
2022-12-19T23:34:21.345Z,-2.84
2022-12-19T23:39:41.709Z,-2.75
2022-12-19T23:42:10.563Z,-2.72
2022-12-19T23:44:39.656Z,-2.67
2022-12-19T23:47:08.372Z,-2.64
2022-12-19T23:49:37.081Z,-2.59
2022-12-19T23:52:06.235Z,-2.55
2022-12-19T23:54:35.631Z,-2.51
2022-12-19T23:57:04.487Z,-2.47
2022-12-19T23:59:34.174Z,-2.43
